KBDR

Igor I Sikorsky Memorial Airport

Bridgeport, Connecticut, USA
KBDR 172033Z 1721/1818 VRB05KT P6SM BKN150 FM180600 VRB04KT 4SM -SN BKN025 FM180900 VRB03KT 3SM -SN OVC015 FM181100 VRB03KT 1 1/2SM -SN OVC010 FM181300 VRB04KT 1 1/2SM -SN OVC007 FM181600 VRB05KT P6SM OVC010
Issued Valid From Valid To
Jan-17 @ 20:33 UTC
(3 hours ago)
Jan-17 @ 21:00 UTC
(2 hours ago)
Jan-18 @ 18:00 UTC
(in 19 hours)
Jan-17 @ 21:00 to Jan-18 @ 06:00
KBDR 172033Z 1721/1818 VRB05KT P6SM BKN150
Wind Visibility Clouds
Variable at 5 knots Greater than 6 miles
  • Broken at 15,000' AGL
From Jan-18 @ 06:00 to Jan-18 @ 09:00
FM180600 VRB04KT 4SM -SN BKN025
Wind Visibility Clouds Conditions
Variable at 4 knots 4 miles
  • Broken at 2,500' AGL
  • Light Snow
From Jan-18 @ 09:00 to Jan-18 @ 11:00
FM180900 VRB03KT 3SM -SN OVC015
Wind Visibility Clouds Conditions
Variable at 3 knots 3 miles
  • Overcast at 1,500' AGL
  • Light Snow
From Jan-18 @ 11:00 to Jan-18 @ 13:00
FM181100 VRB03KT 1 1/2SM -SN OVC010
Wind Visibility Clouds Conditions
Variable at 3 knots 1 1/2 miles
  • Overcast at 1,000' AGL
  • Light Snow
From Jan-18 @ 13:00 to Jan-18 @ 16:00
FM181300 VRB04KT 1 1/2SM -SN OVC007
Wind Visibility Clouds Conditions
Variable at 4 knots 1 1/2 miles
  • Overcast at 700' AGL
  • Light Snow
From Jan-18 @ 16:00 to Jan-18 @ 18:00
FM181600 VRB05KT P6SM OVC010
Wind Visibility Clouds
Variable at 5 knots Greater than 6 miles
  • Overcast at 1,000' AGL
KBDR 172033Z 1721/1818 VRB05KT P6SM BKN150 FM180600 VRB04KT 4SM -SN BKN025 FM180900 VRB03KT 3SM -SN OVC015 FM181100 VRB03KT 1 1/2SM -SN OVC010 FM181300 VRB04KT 1 1/2SM -SN OVC007 FM181600 VRB05KT P6SM OVC010
Issued Jan-17 @ 20:33 UTC
(3 hours ago)
Valid From Jan-17 @ 21:00 UTC
(2 hours ago)
Valid To Jan-18 @ 18:00 UTC
(in 19 hours)
Jan-17 @ 21:00 - Jan-18 @ 06:00
Wind Visibility
Variable at 5 knots Greater than 6 miles
Clouds
  • Broken at 15,000' AGL
From Jan-18 @ 06:00 - Jan-18 @ 09:00
Wind Visibility
Variable at 4 knots 4 miles
Clouds
  • Broken at 2,500' AGL
Conditions
  • Light Snow
From Jan-18 @ 09:00 - Jan-18 @ 11:00
Wind Visibility
Variable at 3 knots 3 miles
Clouds
  • Overcast at 1,500' AGL
Conditions
  • Light Snow
From Jan-18 @ 11:00 - Jan-18 @ 13:00
Wind Visibility
Variable at 3 knots 1 1/2 miles
Clouds
  • Overcast at 1,000' AGL
Conditions
  • Light Snow
From Jan-18 @ 13:00 - Jan-18 @ 16:00
Wind Visibility
Variable at 4 knots 1 1/2 miles
Clouds
  • Overcast at 700' AGL
Conditions
  • Light Snow
From Jan-18 @ 16:00 - Jan-18 @ 18:00
Wind Visibility
Variable at 5 knots Greater than 6 miles
Clouds
  • Overcast at 1,000' AGL